OVB weather

Tolmachevo Airport
Novosibirsk, Novosibirsk Oblast, Russia

Public forecast

Using degrees Celsius for public forecast. Weather courtesy of forecast.io.

Current aviation weather report (METAR) for Tolmachevo Airport

Report is more than 6 hours old.

Retrieved 2019/10/10 11:00 UTC (4 days ago):

UNNT 101100Z 05004MPS CAVOK 10/M03 Q1023 R07/090070 R16/090070 NOSIG RMK QFE757/1009

Aviation forecast (TAF) for Tolmachevo Airport

Retrieved 2019/10/14 21:24 UTC (1 hour ago):

TAF UNNT 142000Z 1421/1521 19005G10MPS CAVOK FM150400 22008G15MPS 9999 BKN016CB TEMPO 1505/1515 3100 -SHRA TEMPO 1517/1521 23003G08MPS